Time;durP1;ratioP1;P1;durP2;ratioP2;P2;SDS_P1;SDS_P2;PMS_P1;PMS_P2;Temp;Humidity;BMP_temperature;BMP_pressure;BME280_temperature;BME280_humidity;BME280_pressure;Samples;Min_cycle;Max_cycle;Signal;HPM_P1;HPM_P2
2023/03/20 00:02:04;;;;;;;3.80;2.20;;;15.00;68.00;15.10;96584.00;;;;5034533;28;20637;-79
2023/03/20 00:04:31;;;;;;;2.70;2.50;;;15.00;67.90;15.10;96582.00;;;;5037774;28;20201;-79
2023/03/20 00:06:59;;;;;;;2.63;2.43;;;15.00;67.90;15.10;96581.00;;;;5035663;28;20227;-79
2023/03/20 00:09:27;;;;;;;2.90;2.53;;;15.00;67.90;15.10;96583.00;;;;5044754;28;20301;-79
2023/03/20 00:11:56;;;;;;;2.50;2.30;;;15.00;67.90;15.00;96581.00;;;;5020705;28;20192;-79
2023/03/20 00:14:25;;;;;;;2.10;1.93;;;14.90;67.80;15.00;96585.00;;;;5033000;28;20233;-79
2023/03/20 00:16:53;;;;;;;2.20;2.10;;;14.90;67.80;15.00;96583.00;;;;5029981;28;20232;-78
2023/03/20 00:19:23;;;;;;;2.23;2.13;;;14.90;67.70;15.00;96590.00;;;;5043008;28;20221;-79
2023/03/20 00:21:53;;;;;;;2.13;2.03;;;14.90;67.70;15.00;96585.00;;;;5035925;28;20232;-79
2023/03/20 00:24:22;;;;;;;2.27;2.07;;;14.90;67.70;14.90;96585.00;;;;5036893;28;20266;-79
2023/03/20 00:26:52;;;;;;;2.10;2.00;;;14.90;67.70;14.90;96587.00;;;;5033735;28;20212;-78
2023/03/20 00:29:26;;;;;;;2.03;1.93;;;14.90;67.70;14.90;96579.00;;;;5037917;28;20248;-78
2023/03/20 00:31:55;;;;;;;2.70;1.80;;;14.80;67.80;14.90;96583.00;;;;5026955;28;20273;-78
2023/03/20 00:34:28;;;;;;;2.40;2.20;;;14.80;67.70;14.90;96577.00;;;;5017555;28;20197;-78
2023/03/20 00:36:56;;;;;;;1.87;1.77;;;14.80;67.70;14.90;96584.00;;;;5015987;28;20256;-78
2023/03/20 00:39:24;;;;;;;1.70;1.60;;;14.80;67.70;14.90;96572.00;;;;5030812;28;20222;-79
2023/03/20 00:41:54;;;;;;;1.77;1.67;;;14.80;67.70;14.90;96576.00;;;;5037546;28;20220;-79
2023/03/20 00:44:28;;;;;;;3.10;2.50;;;14.80;67.80;14.80;96580.00;;;;5055046;28;20199;-79
2023/03/20 00:46:59;;;;;;;2.20;2.00;;;14.80;67.90;14.80;96577.00;;;;5034775;28;20225;-79
2023/03/20 00:49:31;;;;;;;2.30;2.10;;;14.80;67.90;14.80;96579.00;;;;5042132;28;20279;-79
2023/03/20 00:52:00;;;;;;;1.90;1.80;;;14.80;67.90;14.90;96577.00;;;;5039741;28;20272;-79
2023/03/20 00:54:28;;;;;;;2.00;1.90;;;14.80;68.00;14.90;96585.00;;;;5032830;28;20208;-78
2023/03/20 00:57:00;;;;;;;2.30;1.93;;;14.80;68.00;14.90;96585.00;;;;5023959;28;20213;-79
2023/03/20 00:59:34;;;;;;;2.23;2.03;;;14.70;68.00;14.80;96581.00;;;;5035919;28;20312;-79
2023/03/20 01:02:02;;;;;;;2.13;1.90;;;14.70;68.00;14.80;96589.00;;;;5033979;28;20229;-79
2023/03/20 01:04:37;;;;;;;3.03;2.47;;;14.70;68.00;14.80;96585.00;;;;5033877;28;20285;-79
2023/03/20 01:07:06;;;;;;;2.23;2.00;;;14.70;68.10;14.80;96579.00;;;;5034361;28;20205;-79
2023/03/20 01:09:33;;;;;;;1.97;1.87;;;14.70;68.00;14.80;96582.00;;;;5041375;28;20217;-79
2023/03/20 01:12:02;;;;;;;2.17;2.07;;;14.70;68.10;14.80;96586.00;;;;5037761;28;20212;-79
2023/03/20 01:14:31;;;;;;;1.90;1.80;;;14.70;68.10;14.80;96595.00;;;;5024692;28;20570;-78
2023/03/20 01:16:59;;;;;;;1.97;1.87;;;14.70;68.20;14.70;96590.00;;;;5016501;28;20212;-79
2023/03/20 01:19:27;;;;;;;2.10;1.90;;;14.70;68.20;14.70;96594.00;;;;5016372;28;20574;-78
2023/03/20 01:21:54;;;;;;;2.50;1.90;;;14.70;68.20;14.70;96581.00;;;;5016033;28;20217;-78
2023/03/20 01:24:21;;;;;;;2.07;1.87;;;14.70;68.20;14.70;96585.00;;;;5026164;28;20207;-79
2023/03/20 01:26:51;;;;;;;2.83;2.00;;;14.70;68.20;14.70;96583.00;;;;5017792;28;20465;-78
2023/03/20 01:29:21;;;;;;;1.90;1.80;;;14.60;68.20;14.70;96587.00;;;;5035536;28;20731;-78
2023/03/20 01:31:52;;;;;;;2.10;1.90;;;14.60;68.30;14.70;96583.00;;;;5035227;28;20221;-78
2023/03/20 01:34:20;;;;;;;2.20;2.00;;;14.60;68.40;14.70;96575.00;;;;5030765;28;20678;-78
2023/03/20 01:36:52;;;;;;;2.13;2.03;;;14.60;68.40;14.70;96578.00;;;;5036473;28;20217;-77
2023/03/20 01:39:23;;;;;;;2.20;2.00;;;14.60;68.50;14.60;96579.00;;;;5049889;28;20724;-78
2023/03/20 01:41:53;;;;;;;2.00;1.90;;;14.60;68.40;14.60;96586.00;;;;5046587;28;20201;-79
2023/03/20 01:44:23;;;;;;;1.77;1.67;;;14.60;68.50;14.60;96579.00;;;;5053475;28;20228;-79
2023/03/20 01:46:54;;;;;;;2.50;2.00;;;14.60;68.50;14.60;96580.00;;;;5054645;28;20205;-78
2023/03/20 01:50:21;;;;;;;2.10;1.90;;;14.60;68.60;14.60;96587.00;;;;5030283;28;20765;-79
2023/03/20 01:52:52;;;;;;;2.13;1.97;;;14.60;69.00;14.60;96579.00;;;;5041295;28;20198;-79
2023/03/20 01:55:22;;;;;;;1.80;1.70;;;14.60;68.60;14.60;96581.00;;;;5034051;28;20689;-79
2023/03/20 01:57:53;;;;;;;1.63;1.53;;;14.50;68.60;14.60;96584.00;;;;5033635;28;20287;-79
2023/03/20 02:00:22;;;;;;;2.13;1.93;;;14.50;68.60;14.60;96589.00;;;;5033158;28;20217;-79
2023/03/20 02:02:51;;;;;;;2.57;2.37;;;14.50;68.70;14.60;96584.00;;;;5033974;28;20211;-79
2023/03/20 02:05:23;;;;;;;2.57;2.13;;;14.50;69.50;14.60;96580.00;;;;5024245;28;20205;-79
2023/03/20 02:08:02;;;;;;;2.37;2.17;;;14.50;68.80;14.50;96579.00;;;;5026749;28;20201;-78
2023/03/20 02:10:30;;;;;;;2.00;1.90;;;14.50;68.90;14.50;96582.00;;;;5022236;28;20304;-79
2023/03/20 02:12:59;;;;;;;1.97;1.87;;;14.50;68.90;14.50;96584.00;;;;5025250;28;20193;-79
2023/03/20 02:15:29;;;;;;;2.30;2.10;;;14.50;68.80;14.50;96585.00;;;;5033054;28;20229;-79
2023/03/20 02:17:58;;;;;;;2.23;1.90;;;14.50;68.90;14.50;96586.00;;;;5019384;28;20272;-79
2023/03/20 02:20:47;;;;;;;2.13;1.90;;;14.50;69.00;14.50;96583.00;;;;5018395;28;20745;-79
2023/03/20 02:24:08;;;;;;;2.90;2.23;;;14.50;69.10;14.50;96587.00;;;;5029653;28;20295;-79
2023/03/20 02:26:55;;;;;;;2.07;1.73;;;14.50;69.30;14.50;96585.00;;;;5020775;28;20237;-79
2023/03/20 02:30:20;;;;;;;2.40;1.80;;;14.50;69.00;14.50;96586.00;;;;5011398;28;20222;-78
2023/03/20 02:33:35;;;;;;;2.27;1.80;;;14.50;69.30;14.50;96588.00;;;;4948000;28;20199;-79
2023/03/20 02:37:04;;;;;;;2.60;1.80;;;14.50;69.10;14.50;96587.00;;;;4962008;28;20231;-79
2023/03/20 02:39:57;;;;;;;1.50;1.40;;;14.50;69.10;14.50;96580.00;;;;4959816;28;20655;-79
2023/03/20 02:42:37;;;;;;;2.80;2.03;;;14.40;69.10;14.40;96587.00;;;;5017755;28;20308;-79
2023/03/20 02:45:19;;;;;;;2.27;2.17;;;14.40;68.90;14.40;96582.00;;;;5013057;28;20492;-79
2023/03/20 02:47:57;;;;;;;1.97;1.87;;;14.40;69.10;14.40;96578.00;;;;5030257;28;20252;-79
2023/03/20 02:50:36;;;;;;;1.83;1.73;;;14.40;69.10;14.40;96580.00;;;;5044438;28;20726;-79
2023/03/20 02:53:20;;;;;;;1.77;1.67;;;14.40;69.20;14.40;96581.00;;;;5027479;28;20721;-78
2023/03/20 02:56:00;;;;;;;2.40;2.20;;;14.40;69.30;14.40;96580.00;;;;5012820;28;20230;-79
2023/03/20 02:58:36;;;;;;;1.90;1.70;;;14.40;69.20;14.50;96584.00;;;;5013814;28;20281;-79
2023/03/20 03:01:12;;;;;;;2.07;1.90;;;14.40;69.20;14.50;96589.00;;;;5026555;28;20284;-79
2023/03/20 03:03:47;;;;;;;1.70;1.60;;;14.40;69.20;14.50;96591.00;;;;5019375;28;20198;-78
2023/03/20 03:06:23;;;;;;;1.80;1.70;;;14.40;69.30;14.50;96585.00;;;;5034438;28;20292;-79
2023/03/20 03:09:01;;;;;;;1.90;1.80;;;14.40;69.30;14.50;96591.00;;;;5017150;28;20228;-79
2023/03/20 03:11:35;;;;;;;1.67;1.57;;;14.40;70.00;14.50;96589.00;;;;5036752;28;20205;-78
2023/03/20 03:14:05;;;;;;;1.80;1.70;;;14.40;69.20;14.50;96593.00;;;;5040479;28;20283;-79
2023/03/20 03:16:38;;;;;;;1.97;1.87;;;14.40;69.20;14.50;96594.00;;;;5037567;28;20304;-78
2023/03/20 03:19:12;;;;;;;1.50;1.50;;;14.40;69.30;14.50;96600.00;;;;5018308;28;20210;-79
2023/03/20 03:21:41;;;;;;;2.90;1.93;;;14.40;69.30;14.50;96591.00;;;;5020203;28;20280;-78
2023/03/20 03:24:29;;;;;;;1.70;1.60;;;14.40;69.20;14.50;96596.00;;;;5022492;28;20204;-79
2023/03/20 03:27:01;;;;;;;2.07;1.83;;;14.40;69.40;14.50;96592.00;;;;5028745;28;20292;-78
2023/03/20 03:29:36;;;;;;;1.77;1.67;;;14.40;69.20;14.50;96599.00;;;;5044729;28;20223;-79
2023/03/20 03:32:07;;;;;;;1.60;1.50;;;14.40;69.20;14.50;96598.00;;;;5024823;28;20288;-79
2023/03/20 03:34:36;;;;;;;2.63;1.70;;;14.40;69.10;14.40;96605.00;;;;5016826;28;20320;-78
2023/03/20 03:37:15;;;;;;;1.73;1.63;;;14.40;69.10;14.40;96605.00;;;;5025568;28;20244;-78
2023/03/20 03:39:50;;;;;;;1.40;1.30;;;14.40;69.20;14.50;96612.00;;;;5023752;28;20222;-79
2023/03/20 03:42:32;;;;;;;1.63;1.53;;;14.40;69.20;14.50;96611.00;;;;5017794;28;20262;-78
2023/03/20 03:45:09;;;;;;;1.60;1.50;;;14.40;70.00;14.40;96610.00;;;;5034700;28;20221;-79
2023/03/20 03:47:43;;;;;;;1.70;1.60;;;14.40;69.10;14.40;96613.00;;;;5031471;28;20201;-78
2023/03/20 03:50:18;;;;;;;1.90;1.43;;;14.40;69.10;14.40;96616.00;;;;5035374;28;20220;-79
2023/03/20 03:52:51;;;;;;;1.57;1.47;;;14.40;69.20;14.40;96613.00;;;;5020949;28;20284;-79
2023/03/20 03:55:25;;;;;;;1.60;1.50;;;14.40;69.20;14.40;96616.00;;;;5017475;28;20302;-79
2023/03/20 03:58:01;;;;;;;1.67;1.57;;;14.40;69.10;14.40;96616.00;;;;5019864;28;20201;-79
2023/03/20 04:00:30;;;;;;;1.80;1.70;;;14.40;69.20;14.40;96617.00;;;;5043439;28;20220;-79
2023/03/20 04:02:59;;;;;;;1.60;1.50;;;14.30;69.00;14.40;96622.00;;;;5030919;28;20404;-78
2023/03/20 04:05:32;;;;;;;1.53;1.43;;;14.30;69.00;14.40;96622.00;;;;5016550;28;20205;-79
2023/03/20 04:08:03;;;;;;;1.87;1.77;;;14.40;69.20;14.40;96630.00;;;;5021552;28;20200;-78
2023/03/20 04:10:31;;;;;;;1.60;1.50;;;14.40;69.20;14.40;96632.00;;;;5034779;28;20235;-78
2023/03/20 04:13:00;;;;;;;1.50;1.30;;;14.30;69.00;14.40;96630.00;;;;5035738;28;20204;-78
2023/03/20 04:15:27;;;;;;;1.77;1.50;;;14.30;69.10;14.40;96636.00;;;;5029361;28;20225;-79
2023/03/20 04:17:55;;;;;;;1.50;1.40;;;14.30;69.10;14.40;96644.00;;;;5015500;28;20277;-79
2023/03/20 04:20:23;;;;;;;1.40;1.40;;;14.30;69.10;14.40;96634.00;;;;5015031;28;20313;-79
2023/03/20 04:22:50;;;;;;;1.43;1.33;;;14.30;69.10;14.50;96643.00;;;;5033744;28;20193;-78
2023/03/20 04:25:21;;;;;;;2.17;1.40;;;14.40;69.20;14.40;96642.00;;;;5042470;28;20846;-79
2023/03/20 04:27:49;;;;;;;1.47;1.37;;;14.30;69.10;14.40;96652.00;;;;5036670;28;20280;-78
2023/03/20 04:30:19;;;;;;;1.80;1.70;;;14.30;69.10;14.40;96638.00;;;;5015017;28;20301;-78
2023/03/20 04:32:46;;;;;;;1.50;1.40;;;14.40;69.30;14.40;96644.00;;;;5015548;28;20206;-78
2023/03/20 04:35:14;;;;;;;1.50;1.40;;;14.30;69.20;14.40;96642.00;;;;5018243;28;20189;-78
2023/03/20 04:37:41;;;;;;;1.60;1.50;;;14.30;69.10;14.40;96641.00;;;;5035451;28;20332;-78
2023/03/20 04:40:10;;;;;;;1.40;1.30;;;14.30;69.10;14.40;96646.00;;;;5040368;28;20307;-78
2023/03/20 04:42:37;;;;;;;1.70;1.57;;;14.30;69.10;14.40;96651.00;;;;5042714;28;20221;-78
2023/03/20 04:45:06;;;;;;;1.50;1.40;;;14.30;69.20;14.40;96643.00;;;;5036496;28;20266;-78
2023/03/20 04:47:35;;;;;;;2.27;1.87;;;14.30;69.40;14.40;96650.00;;;;5036671;28;20280;-79
2023/03/20 04:50:02;;;;;;;1.60;1.50;;;14.30;69.40;14.40;96649.00;;;;5037902;28;20308;-78
2023/03/20 04:52:29;;;;;;;1.63;1.53;;;14.30;69.40;14.40;96656.00;;;;5027757;28;20236;-79
2023/03/20 04:54:57;;;;;;;1.60;1.50;;;14.30;69.30;14.40;96658.00;;;;5050987;28;20284;-78
2023/03/20 04:57:24;;;;;;;1.50;1.40;;;14.30;69.40;14.40;96653.00;;;;5033065;28;20213;-78
2023/03/20 04:59:51;;;;;;;2.13;1.57;;;14.30;69.50;14.40;96653.00;;;;5035849;28;20296;-79
2023/03/20 05:02:19;;;;;;;1.60;1.43;;;14.30;69.60;14.40;96666.00;;;;5026007;28;20221;-78
2023/03/20 05:04:48;;;;;;;1.50;1.40;;;14.30;69.60;14.40;96660.00;;;;5001470;28;20658;-78
2023/03/20 05:07:15;;;;;;;1.67;1.40;;;14.30;69.70;14.40;96667.00;;;;5033912;28;20202;-79
2023/03/20 05:09:43;;;;;;;1.63;1.50;;;14.30;69.70;14.40;96666.00;;;;5036159;28;20255;-79
2023/03/20 05:12:12;;;;;;;1.50;1.40;;;14.30;69.70;14.40;96664.00;;;;5032940;28;20284;-79
2023/03/20 05:14:40;;;;;;;1.50;1.40;;;14.30;69.70;14.40;96666.00;;;;5030373;28;20637;-79
2023/03/20 05:17:07;;;;;;;1.50;1.40;;;14.30;69.70;14.40;96668.00;;;;5013372;28;20283;-78
2023/03/20 05:19:35;;;;;;;1.60;1.50;;;14.30;69.70;14.40;96668.00;;;;5029061;28;20220;-78
2023/03/20 05:22:04;;;;;;;1.53;1.43;;;14.30;69.70;14.40;96669.00;;;;5034571;28;20673;-79
2023/03/20 05:24:31;;;;;;;1.80;1.70;;;14.30;69.70;14.40;96665.00;;;;5031019;28;20569;-79
2023/03/20 05:26:58;;;;;;;1.87;1.77;;;14.30;69.70;14.40;96670.00;;;;5014948;28;20300;-79
2023/03/20 05:29:26;;;;;;;1.80;1.70;;;14.30;69.60;14.30;96672.00;;;;5021997;28;20296;-78
2023/03/20 05:31:54;;;;;;;1.60;1.50;;;14.20;69.50;14.30;96678.00;;;;5036855;28;20339;-78
2023/03/20 05:34:21;;;;;;;1.27;1.27;;;14.20;69.50;14.30;96672.00;;;;5016276;28;20294;-79
2023/03/20 05:36:49;;;;;;;1.60;1.50;;;14.20;69.60;14.30;96679.00;;;;5035608;28;20224;-79
2023/03/20 05:39:18;;;;;;;1.67;1.57;;;14.20;69.60;14.30;96676.00;;;;5044045;28;20685;-79
2023/03/20 05:41:46;;;;;;;1.77;1.60;;;14.20;69.60;14.30;96678.00;;;;5035537;28;20272;-79
2023/03/20 05:44:13;;;;;;;2.10;1.80;;;14.20;69.70;14.30;96676.00;;;;5032346;28;20267;-79
2023/03/20 05:46:40;;;;;;;1.63;1.53;;;14.20;69.70;14.40;96683.00;;;;5028858;28;20292;-79
2023/03/20 05:49:08;;;;;;;1.47;1.37;;;14.20;69.70;14.40;96680.00;;;;5031309;28;20233;-78
2023/03/20 05:51:37;;;;;;;1.70;1.60;;;14.20;69.70;14.40;96684.00;;;;5035357;28;20280;-78
2023/03/20 05:54:05;;;;;;;1.80;1.70;;;14.20;69.80;14.40;96688.00;;;;5036719;28;20224;-78
2023/03/20 05:56:34;;;;;;;1.60;1.50;;;14.30;69.70;14.40;96700.00;;;;5037658;28;20726;-77
2023/03/20 05:59:01;;;;;;;1.67;1.57;;;14.30;69.90;14.40;96698.00;;;;5044720;28;20220;-79
2023/03/20 06:01:28;;;;;;;1.77;1.67;;;14.30;69.70;14.40;96707.00;;;;5038375;28;20266;-79
2023/03/20 06:03:56;;;;;;;1.70;1.60;;;14.30;69.70;14.40;96703.00;;;;5034134;28;20212;-81
2023/03/20 06:06:24;;;;;;;2.10;1.97;;;14.30;69.70;14.40;96704.00;;;;5038513;28;20284;-83
2023/03/20 06:08:51;;;;;;;1.80;1.70;;;14.30;69.70;14.40;96712.00;;;;5023288;28;20236;-81
2023/03/20 06:11:18;;;;;;;1.90;1.80;;;14.30;69.70;14.50;96709.00;;;;5031779;28;20229;-82
2023/03/20 06:13:49;;;;;;;2.00;1.90;;;14.30;69.80;14.50;96707.00;;;;5034858;28;20709;-81
2023/03/20 06:16:16;;;;;;;2.00;1.90;;;14.30;69.80;14.50;96714.00;;;;5036649;28;20231;-82
2023/03/20 06:18:44;;;;;;;1.87;1.77;;;14.40;69.80;14.60;96707.00;;;;5028004;28;20205;-81
2023/03/20 06:21:11;;;;;;;1.90;1.80;;;14.40;69.80;14.60;96715.00;;;;5028299;28;20205;-82
2023/03/20 06:23:39;;;;;;;1.90;1.80;;;14.40;69.70;14.60;96721.00;;;;5033399;28;20666;-82
2023/03/20 06:26:07;;;;;;;2.00;1.87;;;14.40;69.70;14.70;96720.00;;;;5032566;28;20267;-82
2023/03/20 06:28:36;;;;;;;2.37;1.90;;;14.40;69.70;14.70;96718.00;;;;5036130;28;20761;-82
2023/03/20 06:31:08;;;;;;;2.27;1.97;;;14.40;69.60;14.70;96724.00;;;;5038285;28;20658;-81
2023/03/20 06:33:36;;;;;;;1.63;1.53;;;14.50;69.70;14.70;96723.00;;;;5023109;28;20204;-83
2023/03/20 06:36:06;;;;;;;2.03;1.90;;;14.50;69.60;14.70;96734.00;;;;5035180;28;20217;-84
2023/03/20 06:38:33;;;;;;;1.80;1.57;;;14.50;69.60;14.70;96732.00;;;;5032718;28;20217;-81
2023/03/20 06:41:00;;;;;;;2.00;1.90;;;14.50;69.50;14.70;96740.00;;;;5031254;28;20280;-81
2023/03/20 06:43:27;;;;;;;2.20;2.00;;;14.50;69.50;14.70;96741.00;;;;5038275;28;20194;-83
2023/03/20 06:45:55;;;;;;;1.77;1.67;;;14.50;69.40;14.70;96730.00;;;;5039281;28;20221;-82
2023/03/20 06:48:23;;;;;;;1.87;1.77;;;14.50;69.30;14.70;96724.00;;;;5038580;28;20284;-82
2023/03/20 06:50:53;;;;;;;2.27;2.17;;;14.50;69.40;14.70;96732.00;;;;5042165;28;20313;-82
2023/03/20 06:53:20;;;;;;;1.70;1.60;;;14.50;69.20;14.80;96725.00;;;;5036412;28;20296;-82
2023/03/20 06:55:49;;;;;;;1.90;1.80;;;14.50;69.20;14.80;96725.00;;;;5042422;28;20321;-82
2023/03/20 06:58:18;;;;;;;1.90;1.80;;;14.50;70.00;14.80;96727.00;;;;5039013;28;20680;-81
2023/03/20 07:00:46;;;;;;;1.70;1.57;;;14.50;69.20;14.80;96715.00;;;;5036433;28;20213;-82
2023/03/20 07:03:15;;;;;;;2.07;1.73;;;14.60;69.30;14.90;96723.00;;;;5038945;28;20205;-82
2023/03/20 07:05:45;;;;;;;2.23;2.10;;;14.60;69.40;14.90;96731.00;;;;5039261;28;20197;-82
2023/03/20 07:08:12;;;;;;;1.80;1.70;;;14.60;69.40;14.90;96723.00;;;;5040825;28;20208;-82
2023/03/20 07:10:40;;;;;;;1.83;1.73;;;14.60;69.30;15.00;96731.00;;;;5034163;28;20237;-82
2023/03/20 07:13:08;;;;;;;3.93;1.80;;;14.70;69.20;15.00;96741.00;;;;5038968;28;20228;-82
2023/03/20 07:15:35;;;;;;;2.10;2.00;;;14.70;69.30;15.10;96740.00;;;;5040750;28;20216;-82
2023/03/20 07:18:05;;;;;;;1.70;1.57;;;14.70;69.30;15.10;96748.00;;;;5044198;28;20221;-83
2023/03/20 07:20:32;;;;;;;1.93;1.83;;;14.80;69.30;15.10;96748.00;;;;5040173;28;20227;-82
2023/03/20 07:23:01;;;;;;;1.90;1.80;;;14.80;69.00;15.10;96752.00;;;;5042914;28;20205;-82
2023/03/20 07:25:29;;;;;;;2.20;2.10;;;14.80;68.80;15.10;96753.00;;;;5036542;28;20217;-81
2023/03/20 07:27:56;;;;;;;2.20;2.10;;;14.90;68.80;15.10;96758.00;;;;5035745;28;20252;-80
2023/03/20 07:30:24;;;;;;;1.93;1.83;;;14.90;68.70;15.10;96757.00;;;;5041876;28;20268;-83
2023/03/20 07:32:52;;;;;;;2.20;2.00;;;14.90;68.50;15.10;96766.00;;;;5034680;28;20684;-82
2023/03/20 07:35:29;;;;;;;2.33;2.13;;;14.90;68.60;15.20;96768.00;;;;5044395;28;20261;-83
2023/03/20 07:37:56;;;;;;;2.40;2.20;;;14.90;68.60;15.30;96772.00;;;;5036580;28;20548;-80
2023/03/20 07:40:28;;;;;;;2.47;2.37;;;15.00;68.70;15.40;96774.00;;;;5034957;28;20217;-82
2023/03/20 07:42:55;;;;;;;2.40;2.20;;;15.00;68.70;15.50;96780.00;;;;5023698;28;20579;-82
2023/03/20 07:45:22;;;;;;;2.90;2.60;;;15.10;68.80;15.50;96783.00;;;;5036375;28;20197;-81
2023/03/20 07:47:52;;;;;;;2.63;2.50;;;15.10;68.60;15.50;96788.00;;;;5025097;28;20201;-82
2023/03/20 07:50:19;;;;;;;2.67;2.50;;;15.20;68.40;15.60;96778.00;;;;5040144;28;20701;-82
2023/03/20 07:52:47;;;;;;;3.00;2.80;;;15.20;68.20;15.60;96785.00;;;;5016738;28;20204;-81
2023/03/20 07:55:16;;;;;;;2.57;2.37;;;15.30;68.10;15.60;96783.00;;;;5036225;28;20224;-83
2023/03/20 07:57:45;;;;;;;2.73;2.53;;;15.30;68.00;15.70;96782.00;;;;5041969;28;20237;-82
2023/03/20 08:00:15;;;;;;;2.43;2.33;;;15.30;68.20;15.80;96787.00;;;;5030140;28;20227;-82
2023/03/20 08:02:42;;;;;;;2.40;2.20;;;15.40;68.20;15.80;96788.00;;;;5042969;28;20198;-83
2023/03/20 08:05:11;;;;;;;2.67;2.47;;;15.40;68.00;15.90;96797.00;;;;5043388;28;20650;-81
2023/03/20 08:07:38;;;;;;;2.57;2.47;;;15.50;67.80;15.90;96790.00;;;;5039575;28;20197;-82
2023/03/20 08:10:06;;;;;;;2.70;2.50;;;15.40;67.60;15.90;96786.00;;;;5036791;28;20221;-83
2023/03/20 08:12:34;;;;;;;2.33;2.23;;;15.50;67.50;16.00;96785.00;;;;5048950;28;20693;-83
2023/03/20 08:15:03;;;;;;;2.70;2.57;;;15.60;67.60;16.10;96783.00;;;;5042609;28;20197;-83
2023/03/20 08:17:30;;;;;;;2.77;2.50;;;15.70;67.60;16.20;96793.00;;;;5044233;28;20300;-83
2023/03/20 08:19:57;;;;;;;2.87;2.67;;;15.70;67.80;16.40;96788.00;;;;5044933;28;20247;-82
2023/03/20 08:22:27;;;;;;;2.90;2.70;;;15.80;67.90;16.60;96794.00;;;;5044093;28;20280;-81
2023/03/20 08:24:54;;;;;;;2.57;2.37;;;15.90;67.90;16.70;96793.00;;;;5030143;28;20209;-83
2023/03/20 08:27:23;;;;;;;3.00;2.80;;;16.10;67.80;16.90;96795.00;;;;5043812;28;20245;-83
2023/03/20 08:29:52;;;;;;;3.10;2.90;;;16.20;67.60;17.00;96790.00;;;;5043121;28;20312;-83
2023/03/20 08:32:25;;;;;;;2.67;2.53;;;16.30;67.50;17.10;96791.00;;;;5048949;28;20188;-84
2023/03/20 08:34:53;;;;;;;2.50;2.40;;;16.40;67.20;17.20;96793.00;;;;5052055;28;20223;-82
2023/03/20 08:37:21;;;;;;;2.70;2.50;;;16.50;67.10;17.30;96783.00;;;;5057712;28;20273;-82
2023/03/20 08:39:49;;;;;;;3.90;2.70;;;16.60;66.70;17.40;96785.00;;;;5055957;28;20214;-82
2023/03/20 08:42:16;;;;;;;2.50;2.40;;;16.70;66.30;17.50;96786.00;;;;5044838;28;20201;-82
2023/03/20 08:44:44;;;;;;;2.40;2.30;;;16.80;66.20;17.60;96783.00;;;;5036299;28;20218;-83
2023/03/20 08:47:12;;;;;;;2.53;2.43;;;16.90;65.80;17.70;96780.00;;;;5039938;28;20205;-83
2023/03/20 08:49:42;;;;;;;2.33;2.00;;;17.00;65.30;17.70;96787.00;;;;5040317;28;20293;-82
2023/03/20 08:52:10;;;;;;;2.20;2.10;;;17.00;65.00;17.70;96791.00;;;;5043258;28;20219;-81
2023/03/20 08:54:37;;;;;;;2.50;2.30;;;17.10;65.20;17.80;96783.00;;;;5042770;28;20189;-79
2023/03/20 08:57:04;;;;;;;2.37;2.17;;;17.20;65.00;17.90;96785.00;;;;5039519;28;20205;-77
2023/03/20 08:59:34;;;;;;;2.37;2.17;;;17.20;64.60;17.90;96786.00;;;;5041016;28;20649;-81
2023/03/20 09:02:02;;;;;;;2.70;2.50;;;17.30;64.70;18.00;96794.00;;;;5025635;28;20284;-80
2023/03/20 09:04:29;;;;;;;2.63;2.43;;;17.30;64.40;18.00;96793.00;;;;5037554;28;20194;-81
2023/03/20 09:07:00;;;;;;;2.23;2.03;;;17.40;63.90;18.10;96790.00;;;;5040471;28;20280;-80
2023/03/20 09:09:28;;;;;;;2.80;2.60;;;17.50;64.00;18.20;96793.00;;;;5041908;28;20225;-81
2023/03/20 09:11:55;;;;;;;2.03;1.93;;;17.50;64.30;18.30;96792.00;;;;5042451;28;20259;-82
2023/03/20 09:14:23;;;;;;;2.13;2.03;;;17.60;64.40;18.50;96799.00;;;;5062768;28;20196;-81
2023/03/20 09:16:52;;;;;;;2.30;2.20;;;17.70;64.20;18.70;96802.00;;;;5028514;28;20249;-82
2023/03/20 09:19:20;;;;;;;2.47;2.27;;;17.90;63.90;18.90;96792.00;;;;5036545;28;20221;-81
2023/03/20 09:21:47;;;;;;;2.00;1.90;;;18.00;63.70;19.00;96791.00;;;;5037726;28;20201;-81
2023/03/20 09:24:17;;;;;;;1.77;1.67;;;18.10;63.30;19.20;96799.00;;;;5036440;28;20236;-81
2023/03/20 09:26:44;;;;;;;2.30;2.10;;;18.20;62.80;19.20;96801.00;;;;5034400;28;20229;-81
2023/03/20 09:29:12;;;;;;;2.37;2.00;;;18.40;62.50;19.20;96806.00;;;;5042872;28;20221;-82
2023/03/20 09:31:39;;;;;;;2.10;1.70;;;18.40;62.00;19.20;96806.00;;;;5043205;28;20236;-82
2023/03/20 09:34:07;;;;;;;1.90;1.80;;;18.50;61.90;19.30;96805.00;;;;5045082;28;20225;-82
2023/03/20 09:36:36;;;;;;;1.50;1.47;;;18.50;61.70;19.30;96805.00;;;;5044559;28;20232;-81
2023/03/20 09:39:03;;;;;;;1.37;1.27;;;18.60;61.50;19.30;96813.00;;;;5046343;28;20653;-81
2023/03/20 09:41:35;;;;;;;1.87;1.77;;;18.60;61.40;19.30;96813.00;;;;5042923;28;20899;-81
2023/03/20 09:44:22;;;;;;;1.93;1.83;;;18.70;60.80;19.30;96814.00;;;;5042634;28;20608;-80
2023/03/20 09:47:12;;;;;;;1.80;1.70;;;18.70;60.20;19.30;96808.00;;;;5038032;28;20202;-83
2023/03/20 09:49:48;;;;;;;1.90;1.80;;;18.70;59.80;19.20;96817.00;;;;5039309;28;20225;-82
2023/03/20 09:52:28;;;;;;;1.80;1.70;;;18.70;59.90;19.10;96814.00;;;;5041314;28;20624;-80
2023/03/20 09:55:01;;;;;;;2.20;2.10;;;18.70;59.60;19.00;96812.00;;;;5043066;28;20221;-81
2023/03/20 09:57:39;;;;;;;2.10;2.00;;;18.60;59.70;18.90;96806.00;;;;5042463;28;20189;-82
2023/03/20 10:00:16;;;;;;;1.97;1.70;;;18.60;59.60;18.90;96798.00;;;;5034517;28;20575;-81
2023/03/20 10:02:53;;;;;;;2.00;1.90;;;18.50;59.60;18.90;96806.00;;;;5046196;28;20189;-82
2023/03/20 10:05:26;;;;;;;1.97;1.87;;;18.50;59.80;18.90;96794.00;;;;5045621;28;20475;-82
2023/03/20 10:07:58;;;;;;;1.97;1.87;;;18.50;59.80;18.90;96792.00;;;;5043117;28;20257;-83
2023/03/20 10:10:38;;;;;;;1.70;1.60;;;18.40;60.60;18.90;96792.00;;;;5043838;28;20233;-81
2023/03/20 10:13:34;;;;;;;1.90;1.80;;;18.40;59.80;19.00;96792.00;;;;5043435;28;20193;-81
2023/03/20 10:16:14;;;;;;;1.60;1.50;;;18.50;59.50;19.10;96788.00;;;;5042916;28;20228;-82
2023/03/20 10:18:55;;;;;;;1.90;1.80;;;18.50;59.70;19.20;96785.00;;;;5051573;28;20224;-82
2023/03/20 10:21:32;;;;;;;1.63;1.50;;;18.60;60.50;19.40;96780.00;;;;5051979;28;20208;-82
2023/03/20 10:24:04;;;;;;;1.37;1.33;;;18.70;60.80;19.50;96791.00;;;;5043952;28;20296;-80
2023/03/20 10:26:36;;;;;;;1.60;1.50;;;18.80;60.10;19.70;96795.00;;;;5056802;28;20209;-82
2023/03/20 10:29:20;;;;;;;1.53;1.43;;;18.90;60.70;19.90;96792.00;;;;5047952;28;20701;-80
2023/03/20 10:32:00;;;;;;;1.77;1.67;;;19.10;60.40;20.20;96789.00;;;;5043490;28;20625;-80
2023/03/20 10:34:51;;;;;;;1.47;1.37;;;19.30;60.60;20.40;96787.00;;;;5044835;28;20243;-81
2023/03/20 10:37:44;;;;;;;1.53;1.43;;;19.50;60.00;20.60;96797.00;;;;5038085;28;20658;-82
2023/03/20 10:40:34;;;;;;;1.77;1.67;;;19.80;59.60;20.70;96787.00;;;;5038890;28;20217;-84
2023/03/20 10:43:09;;;;;;;1.63;1.53;;;20.00;58.30;20.60;96787.00;;;;5039565;28;20654;-82
2023/03/20 10:45:44;;;;;;;1.40;1.30;;;20.00;58.30;20.60;96789.00;;;;5038135;28;20254;-83
2023/03/20 10:48:25;;;;;;;1.90;1.80;;;20.10;57.70;20.50;96780.00;;;;5039717;28;20197;-82
2023/03/20 10:50:57;;;;;;;1.50;1.40;;;20.10;57.30;20.50;96781.00;;;;5038903;28;20190;-83
2023/03/20 10:53:38;;;;;;;1.10;1.10;;;20.10;57.20;20.40;96780.00;;;;5039127;28;20280;-83
2023/03/20 10:56:11;;;;;;;1.30;1.20;;;20.00;56.80;20.30;96775.00;;;;5038957;28;20189;-82
2023/03/20 10:58:42;;;;;;;1.20;1.10;;;19.90;57.00;20.20;96782.00;;;;5041157;28;20221;-80
2023/03/20 11:01:12;;;;;;;1.50;1.40;;;19.90;56.90;20.20;96775.00;;;;5040302;28;20193;-81
2023/03/20 11:03:40;;;;;;;1.03;0.93;;;19.90;56.30;20.10;96773.00;;;;5040870;28;20224;-81
2023/03/20 11:06:18;;;;;;;1.10;1.10;;;19.80;56.30;19.90;96775.00;;;;5045728;28;20201;-81
2023/03/20 11:08:50;;;;;;;0.90;0.90;;;19.70;55.90;19.80;96767.00;;;;5043314;28;20688;-81
2023/03/20 11:11:24;;;;;;;1.00;1.00;;;19.60;55.90;19.80;96760.00;;;;5043772;28;20224;-81
2023/03/20 11:13:52;;;;;;;0.80;0.80;;;19.50;56.20;19.80;96757.00;;;;5026761;28;20754;-82
2023/03/20 11:16:25;;;;;;;0.90;0.90;;;19.50;56.40;19.80;96753.00;;;;5033747;28;20284;-81